Chesnee, South Carolina
Current Conditions -  °F | °C
As of 3:15 PM on Saturday 25 Oct 2014 (Local Time) from KEHO Reporting Station
Clear Clear  
Wind Chill: 72°   Ceiling: Unl
Heat Index: 72°   Visibility: 10mi
Dew Point: 31°   Wind: 3mph
Humidity: 23%   Direction: 220°SW
Pressure: 29.97"   Gusts: NA
Location:  35.15°N, 81.86°W
Report Text: KEHO 251915Z AUTO 22003KT 10SM CLR 22/00 A2997 RMK AO2 T02201004
Loading
Personal Weather Stations






























Interactive Weather Map New forecast layout! Learn more

10-Day Weather Forecast

Advertisements
Track Severe Weather on mobile